Time;durP1;ratioP1;P1;durP2;ratioP2;P2;SDS_P1;SDS_P2;PMS_P1;PMS_P2;Temp;Humidity;BMP_temperature;BMP_pressure;BME280_temperature;BME280_humidity;BME280_pressure;Samples;Min_cycle;Max_cycle;Signal;HPM_P1;HPM_P2
2021/07/24 00:00:37;;;;;;;15.90;8.93;;;27.20;68.00;;;;;;4250788;27;20059;-73
2021/07/24 00:02:40;;;;;;;13.27;8.13;;;27.20;67.50;;;;;;4250026;27;20051;-73
2021/07/24 00:04:43;;;;;;;15.10;8.45;;;27.30;67.50;;;;;;4249541;27;20051;-72
2021/07/24 00:06:46;;;;;;;14.27;8.15;;;27.40;66.90;;;;;;4231859;27;20055;-73
2021/07/24 00:08:50;;;;;;;15.90;8.30;;;27.40;66.50;;;;;;4249623;27;20058;-73
2021/07/24 00:10:53;;;;;;;12.85;8.07;;;27.40;66.70;;;;;;4250117;27;20050;-73
2021/07/24 00:12:57;;;;;;;16.73;7.97;;;27.40;66.80;;;;;;4232216;28;20572;-73
2021/07/24 00:15:00;;;;;;;18.58;8.50;;;27.50;66.70;;;;;;4250048;27;20063;-73
2021/07/24 00:17:04;;;;;;;18.55;8.63;;;27.50;66.50;;;;;;4250604;27;20051;-73
2021/07/24 00:19:07;;;;;;;17.70;9.20;;;27.50;66.60;;;;;;4249865;27;20063;-73
2021/07/24 00:21:10;;;;;;;20.20;8.70;;;27.40;66.30;;;;;;4251233;27;20066;-73
2021/07/24 00:23:13;;;;;;;22.17;8.50;;;27.40;65.90;;;;;;4252822;27;20220;-73
2021/07/24 00:25:17;;;;;;;13.43;8.07;;;27.40;66.00;;;;;;4254701;27;20051;-73
2021/07/24 00:27:20;;;;;;;20.23;8.27;;;27.30;65.80;;;;;;4253946;27;20078;-73
2021/07/24 00:29:25;;;;;;;15.60;7.78;;;27.40;65.70;;;;;;4252522;27;20055;-73
2021/07/24 00:31:28;;;;;;;;;;;27.40;65.50;;;;;;4252337;27;20062;-74
2021/07/24 00:33:32;;;;;;;12.13;7.95;;;27.30;65.40;;;;;;4250632;27;19972;-73
2021/07/24 00:35:36;;;;;;;14.63;7.68;;;27.40;65.50;;;;;;4251386;27;20651;-73
2021/07/24 00:37:39;;;;;;;14.68;8.75;;;27.40;65.70;;;;;;4250455;27;20051;-73
2021/07/24 00:39:42;;;;;;;15.52;8.35;;;27.40;65.60;;;;;;4251288;27;20090;-74
2021/07/24 00:41:48;;;;;;;13.32;8.48;;;27.40;65.50;;;;;;4250985;27;20058;-73
2021/07/24 00:43:51;;;;;;;13.75;7.50;;;27.40;65.60;;;;;;4250414;27;20051;-73
2021/07/24 00:45:56;;;;;;;18.27;8.75;;;27.30;65.80;;;;;;4252379;27;20062;-73
2021/07/24 00:48:01;;;;;;;19.70;8.50;;;27.40;65.60;;;;;;4251878;27;20047;-73
2021/07/24 00:50:10;;;;;;;18.58;8.55;;;27.30;65.60;;;;;;4249114;27;20059;-73
2021/07/24 00:52:14;;;;;;;14.25;7.90;;;27.40;65.40;;;;;;4249772;27;20055;-74
2021/07/24 00:54:17;;;;;;;20.67;7.75;;;27.40;65.80;;;;;;4257162;27;20072;-73
2021/07/24 00:56:21;;;;;;;17.98;8.25;;;27.20;66.30;;;;;;4268351;27;20430;-74
2021/07/24 00:58:27;;;;;;;14.07;9.07;;;27.10;66.20;;;;;;4271291;27;20054;-72
2021/07/24 01:00:30;;;;;;;19.00;8.18;;;27.00;66.70;;;;;;4272731;27;20050;-73
2021/07/24 01:02:35;;;;;;;12.20;7.47;;;27.00;66.60;;;;;;4272616;27;20075;-73
2021/07/24 01:04:40;;;;;;;15.85;8.38;;;26.90;66.30;;;;;;4268486;27;20403;-73
2021/07/24 01:06:46;;;;;;;19.20;8.93;;;26.90;66.40;;;;;;4270676;27;20406;-73
2021/07/24 01:08:49;;;;;;;19.00;8.48;;;27.10;66.50;;;;;;4270605;27;20053;-73
2021/07/24 01:10:53;;;;;;;16.88;8.18;;;27.10;66.60;;;;;;4271299;27;20055;-73
2021/07/24 01:12:57;;;;;;;18.27;8.48;;;27.10;66.60;;;;;;4270552;27;20046;-73
2021/07/24 01:15:01;;;;;;;16.70;8.23;;;27.10;66.40;;;;;;4270518;27;20047;-74
2021/07/24 01:17:04;;;;;;;21.15;8.93;;;27.20;66.40;;;;;;4250478;27;20067;-74
2021/07/24 01:19:09;;;;;;;15.98;8.55;;;27.10;66.20;;;;;;4266090;27;20061;-74
2021/07/24 01:21:13;;;;;;;16.20;7.85;;;27.20;66.60;;;;;;4265618;27;20043;-73
2021/07/24 01:23:18;;;;;;;;;;;27.30;65.80;;;;;;4265638;27;20051;-73
2021/07/24 01:25:21;;;;;;;16.02;8.68;;;27.30;66.00;;;;;;4271986;27;19919;-74
2021/07/24 01:27:25;;;;;;;26.60;8.55;;;27.40;65.80;;;;;;4279303;27;20118;-74
2021/07/24 01:29:27;;;;;;;21.20;8.20;;;27.40;66.20;;;;;;4264893;27;20053;-74
2021/07/24 01:31:30;;;;;;;21.08;8.38;;;27.40;66.40;;;;;;4264431;27;20430;-74
2021/07/24 01:33:34;;;;;;;18.38;9.10;;;27.40;66.70;;;;;;4264806;27;20046;-73
2021/07/24 01:35:45;;;;;;;15.48;8.75;;;27.20;67.20;;;;;;4266416;27;20447;-74
2021/07/24 01:37:48;;;;;;;19.75;9.43;;;27.20;67.50;;;;;;4264608;27;20072;-74
2021/07/24 01:39:52;;;;;;;23.05;9.00;;;27.10;68.00;;;;;;4264568;27;20055;-72
2021/07/24 01:41:55;;;;;;;20.10;8.85;;;26.90;68.30;;;;;;4264296;27;20054;-73
2021/07/24 01:43:58;;;;;;;23.77;8.60;;;26.70;69.00;;;;;;4264053;27;20046;-73
2021/07/24 01:46:01;;;;;;;17.17;8.10;;;26.70;71.00;;;;;;4263210;27;20126;-73
2021/07/24 01:48:11;;;;;;;15.45;7.55;;;26.60;73.00;;;;;;4264555;27;20402;-74
2021/07/24 01:52:48;;;;;;;16.73;7.03;;;26.50;75.90;;;;;;4264716;27;20069;-73
2021/07/24 01:54:58;;;;;;;19.58;6.70;;;26.60;76.90;;;;;;4251311;27;20043;-73
2021/07/24 01:57:06;;;;;;;18.38;6.15;;;26.50;78.80;;;;;;4247073;27;20058;-73
2021/07/24 01:59:10;;;;;;;27.10;5.82;;;26.40;79.30;;;;;;4248592;27;20055;-74
2021/07/24 02:01:15;;;;;;;19.30;5.50;;;26.30;81.80;;;;;;4249464;27;20055;-74
2021/07/24 02:03:19;;;;;;;13.75;5.40;;;26.30;81.40;;;;;;4249409;27;20416;-73
2021/07/24 02:05:31;;;;;;;13.20;6.10;;;26.20;82.50;;;;;;4250364;27;20047;-74
2021/07/24 02:07:37;;;;;;;16.08;5.95;;;26.30;82.60;;;;;;4260776;27;20054;-73
2021/07/24 02:09:40;;;;;;;11.55;5.10;;;26.20;83.60;;;;;;4261792;27;20053;-76
2021/07/24 02:11:46;;;;;;;10.30;5.75;;;26.20;83.80;;;;;;4263654;27;20067;-74
2021/07/24 02:13:49;;;;;;;13.82;5.75;;;26.10;84.90;;;;;;4261297;27;20103;-74
2021/07/24 02:15:53;;;;;;;15.53;5.47;;;26.10;84.90;;;;;;4258284;27;20061;-73
2021/07/24 02:17:57;;;;;;;13.02;5.68;;;26.10;85.80;;;;;;4249943;27;20051;-76
2021/07/24 02:20:04;;;;;;;9.02;5.80;;;26.00;86.60;;;;;;4248916;27;20055;-72
2021/07/24 02:22:07;;;;;;;10.32;6.05;;;25.90;87.40;;;;;;4247935;27;20499;-75
2021/07/24 02:24:10;;;;;;;9.77;6.15;;;25.90;87.50;;;;;;4248606;27;20051;-75
2021/07/24 02:26:13;;;;;;;11.45;5.93;;;25.90;87.50;;;;;;4250660;27;20058;-74
2021/07/24 02:28:17;;;;;;;11.32;6.57;;;25.90;87.50;;;;;;4250842;27;20145;-73
2021/07/24 02:30:21;;;;;;;12.18;6.35;;;26.00;87.60;;;;;;4249426;27;20052;-73
2021/07/24 02:32:24;;;;;;;10.13;5.82;;;26.00;88.40;;;;;;4250675;27;20134;-74
2021/07/24 02:34:27;;;;;;;8.65;5.80;;;25.90;89.20;;;;;;4250701;27;20043;-74
2021/07/24 02:36:30;;;;;;;11.60;5.97;;;25.80;88.70;;;;;;4248859;27;20437;-73
2021/07/24 02:38:33;;;;;;;10.35;5.78;;;25.90;87.60;;;;;;4246798;27;20486;-73
2021/07/24 02:40:37;;;;;;;8.18;5.75;;;26.00;87.20;;;;;;4246723;27;20145;-73
2021/07/24 02:42:40;;;;;;;7.85;5.22;;;26.00;87.60;;;;;;4246186;27;20511;-74
2021/07/24 02:44:44;;;;;;;10.85;5.88;;;26.10;86.80;;;;;;4246161;27;20130;-74
2021/07/24 02:46:47;;;;;;;8.00;5.00;;;26.00;86.40;;;;;;4253613;27;20054;-73
2021/07/24 02:48:50;;;;;;;10.82;4.88;;;26.10;86.00;;;;;;4263545;27;20138;-74
2021/07/24 02:50:53;;;;;;;10.70;4.75;;;26.00;86.80;;;;;;4263444;27;20059;-73
2021/07/24 02:52:57;;;;;;;6.43;4.97;;;26.00;85.80;;;;;;4264001;27;20491;-74
2021/07/24 02:55:00;;;;;;;10.70;5.20;;;26.10;85.20;;;;;;4264017;27;20046;-73
2021/07/24 02:57:04;;;;;;;10.30;5.03;;;26.10;85.80;;;;;;4263411;27;20528;-73
2021/07/24 02:59:07;;;;;;;9.80;4.72;;;26.00;85.90;;;;;;4246058;27;20067;-74
2021/07/24 03:01:11;;;;;;;9.20;4.53;;;26.00;86.00;;;;;;4272702;27;20047;-73
2021/07/24 03:03:14;;;;;;;6.82;4.57;;;26.00;85.10;;;;;;4274684;27;20057;-73
2021/07/24 03:05:18;;;;;;;11.43;4.72;;;25.90;85.70;;;;;;4269644;27;20055;-74
2021/07/24 03:07:21;;;;;;;7.57;3.80;;;25.90;85.60;;;;;;4266487;27;20078;-73
2021/07/24 03:09:25;;;;;;;6.30;3.83;;;25.80;85.40;;;;;;4265883;27;20062;-75
2021/07/24 03:11:28;;;;;;;6.32;4.65;;;25.80;85.00;;;;;;4266359;27;20046;-73
2021/07/24 03:13:31;;;;;;;5.60;3.80;;;25.70;85.30;;;;;;4249203;27;20105;-74
2021/07/24 03:15:35;;;;;;;10.85;3.95;;;25.60;85.70;;;;;;4267283;27;20055;-73
2021/07/24 03:17:39;;;;;;;6.32;4.43;;;25.50;85.90;;;;;;4266563;27;20062;-75
2021/07/24 03:19:42;;;;;;;9.18;4.30;;;25.50;86.30;;;;;;4264901;27;20652;-74
2021/07/24 03:21:45;;;;;;;6.70;3.95;;;25.40;86.90;;;;;;4269981;27;20053;-76
2021/07/24 03:23:49;;;;;;;8.93;3.70;;;25.40;86.80;;;;;;4272256;27;20054;-73
2021/07/24 03:25:52;;;;;;;5.18;4.05;;;25.40;87.40;;;;;;4270302;27;20059;-74
2021/07/24 03:27:55;;;;;;;9.63;4.53;;;25.40;86.10;;;;;;4269769;27;20491;-74
2021/07/24 03:29:58;;;;;;;10.15;4.05;;;25.40;85.40;;;;;;4268061;27;20050;-73
2021/07/24 03:32:01;;;;;;;6.78;3.78;;;25.40;85.60;;;;;;4277859;27;20066;-74
2021/07/24 03:34:05;;;;;;;7.47;3.85;;;25.40;85.60;;;;;;4272629;27;20055;-74
2021/07/24 03:36:09;;;;;;;9.30;3.80;;;25.10;86.10;;;;;;4266304;27;20055;-73
2021/07/24 03:38:12;;;;;;;5.97;3.67;;;25.00;85.80;;;;;;4263594;27;20047;-73
2021/07/24 03:40:15;;;;;;;6.88;3.42;;;25.00;86.20;;;;;;4264505;27;20703;-75
2021/07/24 03:42:18;;;;;;;7.63;3.80;;;25.00;86.30;;;;;;4245534;28;20052;-75
2021/07/24 03:44:21;;;;;;;8.32;3.78;;;25.00;86.30;;;;;;4248876;27;20051;-73
2021/07/24 03:46:26;;;;;;;6.57;3.78;;;24.90;87.00;;;;;;4249390;27;20047;-73
2021/07/24 03:48:29;;;;;;;6.75;4.18;;;24.80;87.60;;;;;;4248701;27;20492;-73
2021/07/24 03:50:33;;;;;;;7.15;4.00;;;24.70;88.10;;;;;;4246274;28;20414;-73
2021/07/24 03:52:36;;;;;;;;;;;24.70;88.80;;;;;;4247144;27;20059;-73
2021/07/24 03:54:39;;;;;;;5.53;3.40;;;24.70;88.00;;;;;;4245603;28;20300;-73
2021/07/24 03:56:42;;;;;;;4.88;3.70;;;24.60;89.10;;;;;;4245920;28;20503;-73
2021/07/24 03:58:47;;;;;;;6.03;3.80;;;24.70;88.20;;;;;;4245897;28;20058;-73
2021/07/24 04:00:50;;;;;;;;;;;24.50;89.20;;;;;;4247012;28;20642;-73
2021/07/24 04:02:53;;;;;;;8.60;4.05;;;24.40;89.90;;;;;;4245471;28;20536;-73
2021/07/24 04:04:56;;;;;;;7.43;3.50;;;24.30;90.10;;;;;;4246432;28;20051;-74
2021/07/24 04:07:01;;;;;;;8.95;4.07;;;24.20;89.80;;;;;;4245786;28;20059;-74
2021/07/24 04:09:07;;;;;;;6.25;3.97;;;24.20;90.00;;;;;;4246970;27;20051;-73
2021/07/24 04:11:10;;;;;;;6.25;3.35;;;24.30;89.50;;;;;;4249222;27;20119;-74
2021/07/24 04:13:14;;;;;;;8.43;3.97;;;24.20;89.20;;;;;;4250930;27;20051;-73
2021/07/24 04:15:17;;;;;;;12.85;3.83;;;24.20;89.10;;;;;;4245210;27;20057;-73
2021/07/24 04:17:21;;;;;;;6.32;3.58;;;24.00;90.00;;;;;;4252594;27;20055;-73
2021/07/24 04:19:25;;;;;;;;;;;23.80;89.90;;;;;;4252876;27;20134;-74
2021/07/24 04:21:28;;;;;;;12.05;4.03;;;23.90;90.00;;;;;;4254052;27;19919;-74
2021/07/24 04:23:33;;;;;;;9.30;4.15;;;23.90;89.50;;;;;;4255064;27;20061;-73
2021/07/24 04:25:36;;;;;;;12.10;4.18;;;23.90;89.90;;;;;;4250698;27;20059;-76
2021/07/24 04:27:40;;;;;;;10.63;4.13;;;23.90;90.00;;;;;;4252606;27;20047;-73
2021/07/24 04:29:43;;;;;;;8.75;4.15;;;24.00;89.00;;;;;;4252505;27;20059;-74
2021/07/24 04:31:46;;;;;;;7.25;4.18;;;23.90;90.10;;;;;;4251909;27;20059;-73
2021/07/24 04:33:49;;;;;;;5.47;3.72;;;23.80;90.20;;;;;;4252141;27;20400;-73
2021/07/24 04:35:52;;;;;;;8.40;4.93;;;23.90;90.50;;;;;;4254360;27;20135;-73
2021/07/24 04:37:55;;;;;;;5.78;3.92;;;23.90;90.20;;;;;;4252755;27;20055;-73
2021/07/24 04:40:02;;;;;;;10.73;4.70;;;23.70;91.10;;;;;;4252128;27;20047;-73
2021/07/24 04:42:05;;;;;;;9.65;4.40;;;23.60;91.40;;;;;;4258648;27;20069;-73
2021/07/24 04:44:08;;;;;;;8.32;3.90;;;23.50;91.50;;;;;;4264082;27;20055;-74
2021/07/24 04:46:12;;;;;;;12.15;4.05;;;23.50;91.50;;;;;;4266335;27;20065;-73
2021/07/24 04:48:15;;;;;;;8.25;4.38;;;23.50;91.70;;;;;;4265676;27;20115;-73
2021/07/24 04:50:18;;;;;;;8.38;3.90;;;23.60;91.40;;;;;;4266025;27;20123;-74
2021/07/24 04:52:23;;;;;;;7.35;4.20;;;23.50;91.60;;;;;;4261012;27;20058;-74
2021/07/24 04:54:27;;;;;;;5.25;4.05;;;23.50;91.40;;;;;;4252736;27;20062;-73
2021/07/24 04:56:33;;;;;;;11.82;4.20;;;23.60;91.50;;;;;;4250782;27;20058;-74
2021/07/24 04:58:36;;;;;;;10.15;4.65;;;23.40;92.10;;;;;;4254358;27;20592;-75
2021/07/24 05:00:43;;;;;;;10.48;4.50;;;23.20;92.50;;;;;;4255152;27;20048;-76
2021/07/24 05:02:46;;;;;;;7.72;4.30;;;23.20;92.80;;;;;;4257858;27;20051;-73
2021/07/24 05:04:50;;;;;;;16.08;4.53;;;23.10;92.90;;;;;;4257043;27;20050;-74
2021/07/24 05:06:55;;;;;;;9.07;4.93;;;23.00;93.20;;;;;;4256046;27;20058;-77
2021/07/24 05:08:58;;;;;;;13.02;5.40;;;23.10;92.70;;;;;;4251175;27;20051;-75
2021/07/24 05:11:02;;;;;;;11.15;4.57;;;23.20;92.80;;;;;;4248753;27;20055;-75
2021/07/24 05:13:07;;;;;;;10.05;4.82;;;23.30;92.60;;;;;;4247878;27;20055;-73
2021/07/24 05:15:10;;;;;;;9.45;4.50;;;23.20;92.60;;;;;;4248054;27;20057;-73
2021/07/24 05:17:14;;;;;;;10.05;4.28;;;23.30;92.60;;;;;;4247999;27;20051;-73
2021/07/24 05:19:17;;;;;;;9.00;4.57;;;23.20;92.80;;;;;;4247711;27;20087;-74
2021/07/24 05:21:20;;;;;;;12.60;4.45;;;23.30;92.70;;;;;;4247646;27;20051;-73
2021/07/24 05:23:24;;;;;;;11.52;4.40;;;23.30;92.50;;;;;;4247782;27;20460;-73
2021/07/24 05:25:27;;;;;;;10.38;3.90;;;23.40;92.50;;;;;;4251490;27;20043;-73
2021/07/24 05:27:30;;;;;;;11.57;5.45;;;23.30;92.60;;;;;;4253148;27;20571;-74
2021/07/24 05:29:34;;;;;;;11.30;4.65;;;23.20;92.80;;;;;;4253465;27;20062;-74
2021/07/24 05:31:38;;;;;;;10.32;4.60;;;23.10;92.90;;;;;;4249363;27;20146;-73
2021/07/24 05:33:41;;;;;;;10.55;4.70;;;23.10;93.10;;;;;;4248103;27;20138;-73
2021/07/24 05:35:46;;;;;;;13.73;4.55;;;23.10;93.10;;;;;;4259340;27;20055;-73
2021/07/24 05:37:49;;;;;;;11.35;4.55;;;22.90;93.30;;;;;;4253016;27;20403;-73
2021/07/24 05:39:52;;;;;;;9.40;4.88;;;22.80;93.30;;;;;;4247743;27;20059;-73
2021/07/24 05:41:55;;;;;;;8.93;4.32;;;22.80;93.30;;;;;;4247636;27;20058;-73
2021/07/24 05:43:58;;;;;;;10.30;4.63;;;22.80;93.30;;;;;;4248968;27;20047;-73
2021/07/24 05:46:03;;;;;;;11.30;4.47;;;23.10;92.50;;;;;;4251571;27;20061;-75
2021/07/24 05:48:06;;;;;;;10.85;4.95;;;23.20;92.20;;;;;;4253225;27;20055;-73
2021/07/24 05:50:10;;;;;;;7.95;4.72;;;23.40;92.20;;;;;;4253150;27;20051;-72
2021/07/24 05:52:13;;;;;;;8.38;4.53;;;23.50;91.80;;;;;;4251916;27;20051;-73
2021/07/24 05:54:18;;;;;;;7.78;4.45;;;23.40;92.20;;;;;;4247960;27;20043;-73
2021/07/24 05:56:21;;;;;;;8.68;4.80;;;23.40;92.00;;;;;;4240341;28;20049;-73
2021/07/24 05:58:24;;;;;;;8.75;4.50;;;23.30;92.40;;;;;;4231711;28;20048;-73
2021/07/24 06:00:27;;;;;;;11.48;4.70;;;23.40;92.10;;;;;;4231105;28;20048;-74
2021/07/24 06:02:31;;;;;;;7.72;3.90;;;23.50;92.00;;;;;;4230039;28;20064;-73
2021/07/24 06:04:35;;;;;;;9.38;4.78;;;23.30;91.80;;;;;;4230499;28;20062;-74
2021/07/24 06:06:38;;;;;;;12.57;5.57;;;23.20;91.90;;;;;;4230157;28;20051;-73
2021/07/24 06:08:41;;;;;;;8.05;4.97;;;23.30;91.90;;;;;;4229810;28;20055;-74
2021/07/24 06:10:44;;;;;;;9.98;4.20;;;23.30;91.80;;;;;;4230813;28;20062;-75
2021/07/24 06:12:47;;;;;;;9.30;4.68;;;23.10;92.30;;;;;;4228888;28;20524;-73
2021/07/24 06:14:50;;;;;;;7.13;4.50;;;23.10;92.30;;;;;;4230113;28;20062;-73
2021/07/24 06:16:54;;;;;;;8.27;4.60;;;23.10;92.40;;;;;;4230471;28;20075;-73
2021/07/24 06:18:59;;;;;;;9.07;4.50;;;23.30;91.80;;;;;;4230286;28;20519;-73
2021/07/24 06:21:02;;;;;;;9.10;5.25;;;23.40;91.80;;;;;;4230353;28;20127;-74
2021/07/24 06:23:05;;;;;;;9.75;4.38;;;23.50;91.80;;;;;;4232974;28;20054;-73
2021/07/24 06:25:09;;;;;;;7.28;4.85;;;23.50;91.80;;;;;;4234627;28;20140;-73
2021/07/24 06:27:12;;;;;;;8.38;5.05;;;23.60;91.50;;;;;;4235868;28;20055;-74
2021/07/24 06:29:15;;;;;;;10.57;4.78;;;23.60;91.90;;;;;;4235158;28;20054;-73
2021/07/24 06:31:18;;;;;;;7.07;4.95;;;23.50;92.00;;;;;;4240156;28;20040;-73
2021/07/24 06:33:21;;;;;;;10.43;4.78;;;23.30;92.20;;;;;;4242283;28;20115;-74
2021/07/24 06:35:26;;;;;;;10.73;4.93;;;23.20;92.40;;;;;;4236448;28;20062;-74
2021/07/24 06:37:29;;;;;;;11.02;5.28;;;23.20;92.70;;;;;;4229741;28;20411;-74
2021/07/24 06:39:32;;;;;;;7.45;4.78;;;23.20;92.60;;;;;;4229753;28;20629;-73
2021/07/24 06:41:38;;;;;;;8.13;5.05;;;23.20;92.60;;;;;;4230591;28;20531;-74
2021/07/24 06:43:41;;;;;;;9.55;4.60;;;23.10;92.70;;;;;;4230067;28;20055;-74
2021/07/24 06:45:44;;;;;;;8.18;4.03;;;23.00;92.70;;;;;;4229701;28;20090;-73
2021/07/24 06:47:47;;;;;;;10.60;4.22;;;23.00;92.50;;;;;;4245882;27;20663;-73
2021/07/24 06:49:50;;;;;;;8.73;4.47;;;22.80;92.90;;;;;;4246879;27;20049;-73
2021/07/24 06:51:55;;;;;;;13.55;4.50;;;22.60;93.10;;;;;;4246967;27;20059;-73
2021/07/24 06:53:58;;;;;;;13.48;5.13;;;22.60;93.10;;;;;;4247348;27;20053;-73
2021/07/24 06:56:01;;;;;;;10.88;4.38;;;22.60;93.10;;;;;;4247626;27;20055;-73
2021/07/24 06:58:04;;;;;;;10.32;4.15;;;22.60;93.40;;;;;;4246726;27;20083;-73
2021/07/24 07:00:08;;;;;;;11.77;4.60;;;22.60;93.10;;;;;;4246161;27;20415;-73
2021/07/24 07:02:11;;;;;;;7.13;4.03;;;22.60;93.00;;;;;;4247224;27;20065;-74
2021/07/24 07:04:14;;;;;;;9.77;3.90;;;22.60;92.60;;;;;;4246964;27;20053;-73
2021/07/24 07:06:17;;;;;;;11.38;5.10;;;22.50;93.00;;;;;;4247075;27;20055;-73
2021/07/24 07:08:23;;;;;;;12.48;4.90;;;22.60;92.70;;;;;;4246719;27;20055;-73
2021/07/24 07:10:26;;;;;;;8.75;4.20;;;22.50;93.00;;;;;;4251917;27;20521;-74
2021/07/24 07:12:33;;;;;;;8.60;3.83;;;22.70;92.70;;;;;;4251544;27;20504;-73
2021/07/24 07:14:36;;;;;;;8.82;4.10;;;22.80;92.40;;;;;;4251160;27;20059;-73
2021/07/24 07:16:39;;;;;;;11.75;3.92;;;22.80;92.10;;;;;;4248213;27;20052;-73
2021/07/24 07:18:42;;;;;;;14.77;3.90;;;22.90;91.90;;;;;;4246532;27;20051;-73
2021/07/24 07:20:46;;;;;;;8.35;3.72;;;22.80;91.90;;;;;;4246547;27;20416;-73
2021/07/24 07:22:49;;;;;;;11.57;3.63;;;22.80;91.90;;;;;;4246469;27;20047;-73
2021/07/24 07:24:54;;;;;;;12.00;4.10;;;23.10;91.60;;;;;;4246736;27;20051;-73
2021/07/24 07:26:57;;;;;;;7.93;3.97;;;23.20;91.60;;;;;;4247331;27;20078;-73
2021/07/24 07:29:03;;;;;;;8.05;3.38;;;23.30;91.20;;;;;;4247290;27;20058;-73
2021/07/24 07:31:06;;;;;;;7.82;3.63;;;23.50;91.00;;;;;;4246541;27;20062;-73
2021/07/24 07:33:09;;;;;;;9.30;3.85;;;23.60;90.70;;;;;;4246213;27;20055;-72
2021/07/24 07:35:12;;;;;;;8.63;3.40;;;23.70;90.50;;;;;;4248889;27;20051;-73
2021/07/24 07:37:15;;;;;;;7.90;3.50;;;23.80;90.50;;;;;;4250778;28;20051;-74
2021/07/24 07:39:19;;;;;;;8.70;3.40;;;23.80;90.50;;;;;;4245147;28;20063;-73
2021/07/24 07:41:24;;;;;;;12.23;4.18;;;23.90;90.20;;;;;;4252738;27;20534;-74
2021/07/24 07:43:27;;;;;;;6.85;3.40;;;24.10;90.00;;;;;;4263256;27;20340;-73
2021/07/24 07:45:30;;;;;;;7.50;3.33;;;24.00;89.90;;;;;;4254909;27;20051;-73
2021/07/24 07:47:35;;;;;;;7.00;3.50;;;23.90;90.00;;;;;;4249856;27;20050;-74
2021/07/24 07:49:38;;;;;;;;;;;24.00;89.80;;;;;;4252599;27;20055;-76
2021/07/24 07:51:41;;;;;;;10.55;4.03;;;24.10;89.30;;;;;;4261931;27;20004;-74
2021/07/24 07:53:43;;;;;;;7.00;3.72;;;24.20;89.00;;;;;;4259427;27;20048;-75
2021/07/24 07:55:46;;;;;;;8.68;3.63;;;24.20;88.60;;;;;;4244809;28;20047;-75
2021/07/24 07:57:51;;;;;;;9.13;3.55;;;24.30;88.40;;;;;;4239339;28;20055;-74
2021/07/24 07:59:54;;;;;;;11.13;3.60;;;24.30;88.60;;;;;;4239889;28;20063;-73
2021/07/24 08:01:57;;;;;;;9.80;4.05;;;24.50;88.60;;;;;;4235623;28;20063;-73
2021/07/24 08:04:00;;;;;;;8.45;3.70;;;24.50;87.90;;;;;;4234619;28;20416;-73
2021/07/24 08:06:03;;;;;;;7.25;3.38;;;24.40;87.60;;;;;;4232478;28;20063;-73
2021/07/24 08:08:07;;;;;;;5.47;3.45;;;24.50;88.20;;;;;;4232987;28;20059;-73
2021/07/24 08:10:10;;;;;;;10.85;3.72;;;24.70;87.00;;;;;;4232531;28;20051;-73
2021/07/24 08:12:13;;;;;;;12.15;3.55;;;24.90;86.40;;;;;;4234301;28;20044;-73
2021/07/24 08:14:18;;;;;;;8.85;3.45;;;25.00;86.10;;;;;;4235553;28;20077;-74
2021/07/24 08:16:21;;;;;;;8.68;3.70;;;25.20;85.50;;;;;;4235107;28;20052;-73
2021/07/24 08:18:24;;;;;;;7.20;3.30;;;25.30;85.40;;;;;;4234248;28;20075;-74
2021/07/24 08:20:27;;;;;;;8.85;3.30;;;25.40;85.00;;;;;;4237888;28;20053;-73
2021/07/24 08:22:30;;;;;;;7.53;3.58;;;25.40;84.40;;;;;;4241234;28;20051;-74
2021/07/24 08:24:33;;;;;;;8.43;3.35;;;25.50;83.60;;;;;;4242026;28;20099;-73
2021/07/24 08:26:36;;;;;;;9.32;3.55;;;25.50;83.00;;;;;;4241907;27;20312;-73
2021/07/24 08:28:39;;;;;;;9.25;3.97;;;25.60;83.30;;;;;;4238606;28;20217;-73
2021/07/24 08:30:46;;;;;;;6.80;3.45;;;25.60;83.20;;;;;;4236730;28;20058;-74
2021/07/24 08:32:49;;;;;;;10.98;3.60;;;25.70;83.20;;;;;;4232834;27;20532;-73
2021/07/24 08:34:52;;;;;;;12.77;3.40;;;25.70;81.10;;;;;;4232328;27;20149;-74
2021/07/24 08:36:55;;;;;;;8.88;3.80;;;25.70;81.00;;;;;;4233010;28;20062;-74
2021/07/24 08:38:58;;;;;;;11.60;4.22;;;25.50;81.30;;;;;;4237380;27;20078;-73
2021/07/24 08:41:02;;;;;;;21.50;3.85;;;25.60;81.20;;;;;;4235576;28;20373;-73
2021/07/24 08:43:07;;;;;;;8.52;3.30;;;25.40;80.30;;;;;;4243654;27;20051;-76
2021/07/24 08:45:19;;;;;;;8.15;3.88;;;25.40;81.20;;;;;;4257076;27;20055;-75
2021/07/24 08:47:32;;;;;;;8.25;3.35;;;25.50;81.70;;;;;;4261571;27;20046;-75
2021/07/24 08:49:45;;;;;;;7.30;3.13;;;25.60;81.60;;;;;;4246991;27;20139;-76
2021/07/24 08:51:50;;;;;;;;;;;25.70;80.80;;;;;;4258806;27;20047;-75
2021/07/24 08:53:59;;;;;;;9.63;3.08;;;25.90;81.20;;;;;;4250138;27;20407;-75
2021/07/24 08:56:08;;;;;;;9.05;3.08;;;26.10;80.90;;;;;;4256535;27;20071;-76
2021/07/24 08:58:19;;;;;;;8.48;3.20;;;26.20;79.00;;;;;;4256437;27;20058;-75
2021/07/24 09:00:27;;;;;;;9.25;3.20;;;25.80;78.50;;;;;;4254416;27;20146;-75
2021/07/24 09:02:37;;;;;;;8.57;2.88;;;25.90;79.70;;;;;;4254282;27;20126;-76
2021/07/24 09:04:46;;;;;;;10.00;3.42;;;26.00;78.80;;;;;;4257157;27;20051;-76
2021/07/24 09:06:55;;;;;;;10.25;3.20;;;26.20;78.70;;;;;;4262599;27;20399;-76
2021/07/24 09:08:59;;;;;;;10.35;3.17;;;26.30;78.80;;;;;;4262831;27;20054;-76
2021/07/24 09:11:02;;;;;;;5.97;3.38;;;26.30;78.30;;;;;;4256758;27;20061;-75
2021/07/24 09:13:06;;;;;;;7.53;3.13;;;26.50;77.90;;;;;;4248723;27;20051;-76
2021/07/24 09:15:11;;;;;;;6.82;2.97;;;26.60;77.80;;;;;;4248740;27;20047;-75
2021/07/24 09:17:19;;;;;;;9.43;3.65;;;26.70;77.60;;;;;;4246979;27;20047;-75
2021/07/24 09:19:25;;;;;;;9.45;3.35;;;26.80;76.30;;;;;;4248026;27;20054;-75
2021/07/24 09:21:30;;;;;;;8.82;3.35;;;26.90;76.90;;;;;;4247764;27;20079;-74
2021/07/24 09:23:39;;;;;;;;;;;27.00;77.00;;;;;;4251119;27;20051;-80
2021/07/24 09:25:43;;;;;;;10.75;3.75;;;27.10;76.90;;;;;;4257923;27;19919;-76
2021/07/24 09:27:49;;;;;;;8.20;2.83;;;27.20;76.80;;;;;;4246546;27;20527;-77
2021/07/24 09:29:56;;;;;;;9.60;3.63;;;27.10;75.50;;;;;;4259177;27;20524;-79
2021/07/24 09:32:09;;;;;;;7.63;3.58;;;27.30;75.60;;;;;;4254684;27;20126;-75
2021/07/24 09:34:14;;;;;;;10.18;3.55;;;27.30;76.00;;;;;;4256033;27;20051;-79
2021/07/24 09:36:32;;;;;;;6.20;2.85;;;27.40;75.20;;;;;;4255140;27;20126;-75
2021/07/24 09:38:38;;;;;;;10.05;3.10;;;27.50;75.40;;;;;;4253253;27;20561;-75
2021/07/24 09:40:43;;;;;;;12.00;3.58;;;27.50;73.60;;;;;;4249622;27;20130;-77
2021/07/24 09:42:47;;;;;;;8.10;2.97;;;27.40;73.20;;;;;;4258383;27;20606;-76
2021/07/24 09:45:07;;;;;;;11.55;3.10;;;27.30;72.90;;;;;;4257191;27;20065;-76
2021/07/24 09:47:29;;;;;;;7.20;3.10;;;27.10;72.40;;;;;;4259181;27;20043;-77
2021/07/24 09:49:38;;;;;;;6.43;3.50;;;27.20;74.40;;;;;;4265414;27;20042;-76
2021/07/24 09:51:49;;;;;;;10.82;3.20;;;27.30;73.00;;;;;;4251087;27;20040;-75
2021/07/24 09:53:55;;;;;;;6.53;3.10;;;27.50;73.20;;;;;;4262174;27;20088;-79
2021/07/24 09:55:59;;;;;;;13.70;3.38;;;27.50;73.50;;;;;;4267341;27;20397;-79
2021/07/24 09:58:03;;;;;;;9.20;3.20;;;27.40;72.50;;;;;;4264964;27;20102;-78
2021/07/24 10:00:25;;;;;;;8.80;3.30;;;27.10;73.40;;;;;;4259095;27;20495;-75
2021/07/24 10:02:30;;;;;;;11.45;3.15;;;27.00;73.50;;;;;;4254833;27;20215;-76
2021/07/24 10:04:35;;;;;;;6.53;2.55;;;27.10;73.40;;;;;;4260151;27;20044;-79
2021/07/24 10:07:01;;;;;;;10.90;3.28;;;27.10;74.20;;;;;;4249744;27;20058;-76
2021/07/24 10:09:04;;;;;;;9.50;3.15;;;27.00;73.10;;;;;;4251862;27;20352;-78
2021/07/24 10:11:09;;;;;;;8.38;3.47;;;26.90;74.10;;;;;;4246855;27;20096;-76
2021/07/24 10:13:13;;;;;;;4.95;2.78;;;26.90;73.50;;;;;;4258454;27;20070;-75
2021/07/24 10:15:17;;;;;;;8.25;3.40;;;27.00;73.20;;;;;;4260845;27;20135;-75
2021/07/24 10:17:20;;;;;;;7.70;3.03;;;27.10;72.90;;;;;;4252877;27;20122;-78
2021/07/24 10:19:26;;;;;;;9.30;2.70;;;26.80;72.00;;;;;;4261386;27;20050;-78
2021/07/24 10:21:29;;;;;;;6.60;2.60;;;26.60;72.10;;;;;;4260894;27;20055;-78
2021/07/24 10:23:33;;;;;;;7.65;2.85;;;26.70;72.40;;;;;;4264010;27;20046;-77
2021/07/24 10:25:50;;;;;;;9.63;2.63;;;26.70;72.60;;;;;;4255319;27;20070;-77
2021/07/24 10:27:56;;;;;;;10.38;3.28;;;26.90;73.50;;;;;;4260735;27;20066;-79
2021/07/24 10:30:03;;;;;;;10.82;3.08;;;27.00;72.30;;;;;;4257821;27;20045;-75
2021/07/24 10:32:09;;;;;;;8.82;2.92;;;27.00;72.00;;;;;;4264922;27;20157;-76
2021/07/24 10:34:14;;;;;;;8.75;3.63;;;27.00;72.00;;;;;;4260457;27;20484;-78
2021/07/24 10:36:17;;;;;;;4.73;2.53;;;27.10;72.50;;;;;;4265441;27;20077;-77
2021/07/24 10:38:31;;;;;;;7.50;2.70;;;27.10;72.40;;;;;;4247919;27;20146;-78
2021/07/24 10:40:36;;;;;;;7.80;2.90;;;27.00;72.20;;;;;;4270687;27;20059;-75
2021/07/24 10:42:39;;;;;;;8.65;2.58;;;26.80;72.00;;;;;;4258550;27;20051;-76
2021/07/24 10:44:43;;;;;;;31.63;4.22;;;26.90;72.90;;;;;;4251142;27;20093;-77
2021/07/24 10:47:10;;;;;;;7.18;2.70;;;26.90;71.90;;;;;;4248336;27;20099;-76